CheckWX is a tool to help pilots better visualize weather data.  It is not intended as a substitute for an official pre-flight weather briefing.

15:38:36 UTC

KEDN METAR
Enterprise Municipal Airport
Enterprise, Alabama, USA
Current

24 mins ago

KEDN 241515Z AUTO 26004KT 10SM BKN027 BKN035 BKN045 29/25 A3002 RMK AO2 T02940245
Observed
Jun-24 @ 15:15 UTC
Wind
  • 260° at 4 KTS
Visibility
10 SM
Flight Rules
MVFR
Cloud Levels
  • Broken at 2,700' AGL
  • Broken at 3,500' AGL
  • Broken at 4,500' AGL
Temperature
29°C / 84°F
Dewpoint
25°C / 77°F
Heat Index
34°C / 94°F
Humidity
79%
Altimeter
30.02" Hg
Pressure
1016.62 hPa
Previous

44 mins ago

KEDN 241455Z AUTO 23004KT 10SM BKN026 BKN034 BKN045 29/24 A3002 RMK AO2 T02900244
Observed
Jun-24 @ 14:55 UTC
Wind
  • 230° at 4 KTS
Visibility
10 SM
Flight Rules
MVFR
Cloud Levels
  • Broken at 2,600' AGL
  • Broken at 3,400' AGL
  • Broken at 4,500' AGL
Temperature
29°C / 84°F
Dewpoint
24°C / 75°F
Heat Index
33°C / 92°F
Humidity
74%
Altimeter
30.02" Hg
Pressure
1016.62 hPa
Previous

1 hour ago

KEDN 241435Z AUTO 24008G16KT 210V270 10SM BKN021 OVC026 29/25 A3003 RMK AO2 T02850246
Observed
Jun-24 @ 14:35 UTC
Wind
  • 240° at 8 KTS
  • Gusting to 16 KTS
Visibility
10 SM
Flight Rules
MVFR
Cloud Levels
  • Broken at 2,100' AGL
  • Overcast at 2,600' AGL
Temperature
29°C / 84°F
Dewpoint
25°C / 77°F
Heat Index
34°C / 94°F
Humidity
79%
Altimeter
30.03" Hg
Pressure
1016.92 hPa